createdAt,value
2019-03-15T00:00:28.960Z,52.39
2019-03-15T00:03:01.180Z,53.72
2019-03-15T00:05:34.111Z,54.81
2019-03-15T00:08:06.870Z,56.01
2019-03-15T00:10:39.649Z,57.31
2019-03-15T00:13:12.451Z,58.19
2019-03-15T00:15:44.975Z,59.42
2019-03-15T00:18:17.380Z,60.43
2019-03-15T00:20:50.065Z,61.67
2019-03-15T00:23:22.455Z,62.84
2019-03-15T00:25:55.507Z,67.84
2019-03-15T00:28:28.015Z,62.25
2019-03-15T00:31:00.580Z,55.81
2019-03-15T00:33:32.985Z,51.73
2019-03-15T00:36:05.450Z,52.29
2019-03-15T00:38:37.809Z,53.49
2019-03-15T00:41:10.588Z,54.65
2019-03-15T00:43:43.122Z,56.10
2019-03-15T00:46:15.439Z,57.25
2019-03-15T00:48:47.880Z,58.59
2019-03-15T00:51:20.130Z,59.70
2019-03-15T00:53:54.390Z,60.36
2019-03-15T00:56:26.299Z,61.08
2019-03-15T00:58:59.140Z,62.54
2019-03-15T01:01:31.315Z,67.43
2019-03-15T01:04:03.421Z,63.10
2019-03-15T01:06:35.541Z,55.27
2019-03-15T01:09:07.852Z,51.96
2019-03-15T01:11:40.076Z,52.45
2019-03-15T01:14:12.500Z,53.40
2019-03-15T01:16:46.035Z,54.69
2019-03-15T01:19:18.319Z,56.13
2019-03-15T01:21:50.855Z,57.41
2019-03-15T01:24:23.195Z,58.44
2019-03-15T01:26:55.580Z,59.47
2019-03-15T01:29:28.475Z,60.63
2019-03-15T01:32:00.696Z,61.44
2019-03-15T01:34:33.112Z,62.27
2019-03-15T01:37:05.342Z,67.16
2019-03-15T01:39:37.540Z,61.98
2019-03-15T01:42:09.869Z,55.52
2019-03-15T01:44:42.249Z,51.87
2019-03-15T01:47:14.621Z,52.62
2019-03-15T01:49:47.295Z,53.74
2019-03-15T01:52:19.770Z,55.03
2019-03-15T01:54:51.950Z,56.37
2019-03-15T01:57:24.715Z,57.49
2019-03-15T01:59:56.905Z,58.03
2019-03-15T02:02:29.280Z,59.61
2019-03-15T02:05:01.429Z,60.49
2019-03-15T02:07:34.578Z,61.67
2019-03-15T02:10:09.390Z,63.20
2019-03-15T02:12:41.517Z,67.42
2019-03-15T02:15:13.799Z,63.16
2019-03-15T02:17:46.042Z,57.38
2019-03-15T02:20:18.546Z,52.71
2019-03-15T02:22:50.806Z,53.32
2019-03-15T02:25:23.095Z,54.22
2019-03-15T02:27:56.825Z,55.64
2019-03-15T02:30:29.136Z,57.15
2019-03-15T02:33:01.477Z,57.92
2019-03-15T02:35:34.181Z,59.19
2019-03-15T02:38:06.473Z,60.40
2019-03-15T02:40:39.106Z,60.59
2019-03-15T02:43:11.290Z,62.18
2019-03-15T02:45:44.025Z,67.91
2019-03-15T02:48:16.902Z,60.99
2019-03-15T02:50:49.475Z,56.52
2019-03-15T02:53:21.655Z,53.01
2019-03-15T02:55:54.086Z,53.38
2019-03-15T02:58:27.421Z,54.27
2019-03-15T03:01:00.103Z,55.32
2019-03-15T03:03:32.613Z,56.75
2019-03-15T03:06:05.146Z,57.92
2019-03-15T03:08:37.545Z,58.49
2019-03-15T03:11:09.998Z,59.59
2019-03-15T03:13:42.546Z,61.14
2019-03-15T03:16:16.131Z,62.07
2019-03-15T03:18:48.400Z,62.61
2019-03-15T03:21:20.784Z,67.67
2019-03-15T03:23:53.273Z,62.38
2019-03-15T03:26:25.810Z,55.01
2019-03-15T03:28:58.165Z,54.29
2019-03-15T03:31:30.681Z,55.38
2019-03-15T03:34:02.896Z,55.73
2019-03-15T03:36:35.336Z,57.26
2019-03-15T03:39:07.795Z,59.17
2019-03-15T03:41:40.281Z,60.58
2019-03-15T03:44:12.645Z,61.24
2019-03-15T03:46:44.800Z,61.71
2019-03-15T03:49:17.155Z,63.11
2019-03-15T03:51:49.750Z,67.76
2019-03-15T03:54:22.165Z,63.06
2019-03-15T03:56:54.645Z,56.98
2019-03-15T03:59:26.966Z,53.01
2019-03-15T04:01:59.135Z,53.80
2019-03-15T04:04:31.718Z,54.65
2019-03-15T04:07:04.310Z,56.02
2019-03-15T04:09:36.630Z,57.23
2019-03-15T04:12:08.980Z,58.26
2019-03-15T04:14:41.200Z,59.49
2019-03-15T04:17:13.700Z,60.73
2019-03-15T04:19:46.126Z,61.72
2019-03-15T04:22:18.361Z,62.59
2019-03-15T04:24:50.647Z,67.82
2019-03-15T04:27:22.970Z,61.76
2019-03-15T04:29:55.296Z,56.84
2019-03-15T04:32:27.785Z,52.33
2019-03-15T04:35:00.462Z,52.76
2019-03-15T04:37:33.109Z,53.89
2019-03-15T04:40:09.669Z,55.05
2019-03-15T04:42:42.247Z,56.36
2019-03-15T04:45:14.814Z,57.63
2019-03-15T04:47:47.186Z,58.27
2019-03-15T04:50:19.650Z,60.02
2019-03-15T04:52:51.798Z,60.84
2019-03-15T04:55:24.490Z,62.01
2019-03-15T04:57:56.860Z,63.02
2019-03-15T05:00:29.430Z,67.72
2019-03-15T05:03:01.910Z,62.28
2019-03-15T05:05:34.276Z,55.56
2019-03-15T05:08:06.775Z,52.28
2019-03-15T05:10:39.040Z,52.86
2019-03-15T05:13:11.335Z,54.11
2019-03-15T05:15:43.661Z,55.25
2019-03-15T05:18:16.100Z,56.50
2019-03-15T05:20:48.480Z,57.83
2019-03-15T05:23:20.870Z,58.73
2019-03-15T05:25:53.098Z,59.87
2019-03-15T05:28:25.868Z,61.38
2019-03-15T05:30:58.403Z,62.02
2019-03-15T05:33:30.605Z,62.94
2019-03-15T05:36:03.091Z,67.33
2019-03-15T05:38:35.382Z,61.67
2019-03-15T05:41:08.001Z,55.73
2019-03-15T05:43:40.300Z,52.42
2019-03-15T05:46:12.620Z,52.93
2019-03-15T05:48:44.825Z,53.89
2019-03-15T05:51:17.035Z,55.11
2019-03-15T05:53:49.350Z,56.15
2019-03-15T05:56:21.617Z,57.70
2019-03-15T05:58:54.025Z,58.49
2019-03-15T06:01:26.287Z,59.69
2019-03-15T06:03:58.505Z,61.46
2019-03-15T06:06:30.775Z,62.53
2019-03-15T06:09:04.710Z,66.63
2019-03-15T06:11:36.900Z,61.21
2019-03-15T06:14:09.190Z,54.74
2019-03-15T06:16:41.506Z,51.87
2019-03-15T06:19:13.960Z,52.57
2019-03-15T06:21:46.555Z,53.80
2019-03-15T06:24:18.680Z,54.92
2019-03-15T06:26:50.895Z,56.45
2019-03-15T06:29:23.267Z,57.21
2019-03-15T06:31:55.720Z,58.68
2019-03-15T06:34:27.970Z,60.12
2019-03-15T06:37:00.347Z,60.56
2019-03-15T06:39:32.686Z,61.94
2019-03-15T06:42:05.131Z,66.16
2019-03-15T06:44:37.842Z,61.16
2019-03-15T06:47:10.071Z,55.35
2019-03-15T06:49:42.385Z,51.90
2019-03-15T06:52:14.655Z,52.63
2019-03-15T06:54:46.861Z,53.94
2019-03-15T06:57:19.115Z,55.10
2019-03-15T06:59:51.216Z,56.06
2019-03-15T07:02:23.416Z,56.94
2019-03-15T07:04:55.621Z,58.04
2019-03-15T07:07:27.989Z,59.56
2019-03-15T07:10:00.398Z,61.24
2019-03-15T07:12:32.790Z,61.52
2019-03-15T07:15:08.273Z,60.75
2019-03-15T07:17:41.706Z,63.97
2019-03-15T07:20:16.301Z,68.53
2019-03-15T07:22:48.754Z,62.89
2019-03-15T07:25:21.086Z,56.57
2019-03-15T07:27:53.528Z,52.73
2019-03-15T07:30:25.870Z,53.51
2019-03-15T07:32:58.337Z,54.59
2019-03-15T07:35:30.875Z,55.44
2019-03-15T07:38:03.232Z,56.47
2019-03-15T07:40:35.612Z,57.86
2019-03-15T07:43:08.505Z,58.58
2019-03-15T07:45:40.890Z,59.93
2019-03-15T07:48:22.380Z,60.58
2019-03-15T07:50:47.126Z,62.37
2019-03-15T07:53:19.605Z,64.20
2019-03-15T07:55:51.905Z,59.81
2019-03-15T07:58:24.225Z,55.55
2019-03-15T08:00:56.530Z,51.50
2019-03-15T08:03:29.490Z,51.44
2019-03-15T08:06:01.895Z,52.76
2019-03-15T08:08:34.241Z,53.68
2019-03-15T08:11:06.674Z,54.92
2019-03-15T08:13:38.964Z,56.54
2019-03-15T08:16:12.192Z,58.21
2019-03-15T08:18:44.680Z,58.06
2019-03-15T08:21:16.796Z,60.38
2019-03-15T08:23:48.915Z,60.25
2019-03-15T08:26:21.075Z,61.65
2019-03-15T08:28:53.255Z,62.13
2019-03-15T08:31:25.591Z,67.02
2019-03-15T08:33:57.840Z,62.08
2019-03-15T08:36:30.141Z,56.83
2019-03-15T08:39:02.412Z,54.54
2019-03-15T08:41:34.685Z,53.42
2019-03-15T08:44:07.390Z,54.75
2019-03-15T08:46:39.849Z,55.28
2019-03-15T08:49:12.456Z,56.69
2019-03-15T08:51:44.680Z,57.78
2019-03-15T08:54:17.001Z,56.94
2019-03-15T08:56:49.052Z,59.09
2019-03-15T08:59:21.211Z,59.47
2019-03-15T09:01:53.403Z,60.02
2019-03-15T09:04:25.642Z,61.52
2019-03-15T09:06:57.800Z,62.21
2019-03-15T09:09:30.700Z,64.25
2019-03-15T09:12:03.069Z,60.14
2019-03-15T09:14:35.428Z,54.35
2019-03-15T09:17:07.772Z,54.33
2019-03-15T09:19:40.125Z,55.01
2019-03-15T09:22:12.242Z,54.95
2019-03-15T09:24:44.460Z,55.68
2019-03-15T09:27:17.605Z,55.78
2019-03-15T09:29:50.005Z,57.54
2019-03-15T09:32:22.220Z,57.52
2019-03-15T09:34:55.786Z,57.57
2019-03-15T09:37:28.620Z,59.09
2019-03-15T09:40:00.920Z,59.26
2019-03-15T09:42:33.435Z,59.52
2019-03-15T09:45:08.230Z,60.70
2019-03-15T09:47:40.585Z,60.65
2019-03-15T09:50:22.852Z,59.53
2019-03-15T09:52:48.425Z,60.31
2019-03-15T09:55:32.374Z,60.36
2019-03-15T09:57:54.986Z,59.74
2019-03-15T10:00:27.770Z,60.11
2019-03-15T10:03:00.430Z,61.10
2019-03-15T10:05:32.686Z,62.47
2019-03-15T10:08:05.070Z,61.91
2019-03-15T10:10:37.449Z,57.20
2019-03-15T10:13:09.855Z,51.74
2019-03-15T10:15:42.223Z,52.30
2019-03-15T10:18:14.506Z,51.10
2019-03-15T10:20:46.965Z,52.65
2019-03-15T10:23:19.211Z,49.81
2019-03-15T10:25:51.620Z,51.05
2019-03-15T10:28:23.860Z,51.45
2019-03-15T10:30:56.086Z,51.94
2019-03-15T10:33:28.155Z,52.80
2019-03-15T10:36:00.560Z,53.15
2019-03-15T10:38:33.025Z,53.02
2019-03-15T10:41:05.545Z,53.62
2019-03-15T10:43:37.840Z,53.29
2019-03-15T10:46:10.118Z,54.67
2019-03-15T10:48:42.115Z,53.24
2019-03-15T10:51:14.705Z,53.84
2019-03-15T10:53:47.093Z,54.51
2019-03-15T10:56:19.537Z,55.06
2019-03-15T10:58:51.805Z,54.11
2019-03-15T11:01:24.105Z,55.45
2019-03-15T11:03:56.495Z,55.54
2019-03-15T11:06:28.791Z,56.86
2019-03-15T11:09:00.976Z,57.15
2019-03-15T11:11:33.726Z,56.90
2019-03-15T11:14:05.891Z,58.03
2019-03-15T11:16:38.291Z,58.45
2019-03-15T11:19:10.631Z,58.51
2019-03-15T11:21:42.850Z,57.77
2019-03-15T11:24:15.226Z,58.40
2019-03-15T11:26:47.775Z,57.72
2019-03-15T11:29:20.245Z,58.38
2019-03-15T11:31:52.890Z,58.80
2019-03-15T11:34:25.328Z,58.34
2019-03-15T11:36:58.730Z,58.71
2019-03-15T11:39:31.317Z,59.08
2019-03-15T11:42:03.626Z,59.26
2019-03-15T11:44:35.757Z,59.32
2019-03-15T11:47:08.017Z,59.31
2019-03-15T11:49:40.301Z,60.87
2019-03-15T11:52:12.727Z,62.71
2019-03-15T11:54:45.016Z,66.68
2019-03-15T11:57:17.291Z,60.28
2019-03-15T11:59:49.796Z,52.97
2019-03-15T12:02:22.186Z,51.67
2019-03-15T12:04:54.405Z,50.68
2019-03-15T12:07:27.006Z,49.67
2019-03-15T12:09:59.266Z,49.61
2019-03-15T12:12:31.526Z,50.27
2019-03-15T12:15:06.686Z,49.97
2019-03-15T12:17:38.925Z,50.82
2019-03-15T12:20:12.412Z,51.21
2019-03-15T12:22:44.669Z,51.24
2019-03-15T12:25:17.066Z,52.64
2019-03-15T12:27:49.465Z,52.63
2019-03-15T12:30:21.525Z,53.56
2019-03-15T12:32:53.646Z,54.97
2019-03-15T12:35:25.945Z,54.76
2019-03-15T12:37:58.525Z,55.10
2019-03-15T12:40:30.906Z,55.53
2019-03-15T12:43:03.310Z,55.89
2019-03-15T12:45:35.566Z,56.89
2019-03-15T12:48:07.945Z,57.04
2019-03-15T12:50:41.006Z,57.90
2019-03-15T12:53:13.445Z,57.23
2019-03-15T12:55:45.527Z,57.37
2019-03-15T12:58:17.769Z,57.24
2019-03-15T13:00:50.105Z,57.74
2019-03-15T13:03:22.428Z,58.10
2019-03-15T13:05:54.505Z,57.91
2019-03-15T13:08:26.985Z,57.95
2019-03-15T13:10:59.270Z,56.84
2019-03-15T13:13:31.508Z,56.04
2019-03-15T13:16:03.705Z,55.83
2019-03-15T13:18:35.835Z,56.68
2019-03-15T13:21:08.028Z,56.48
2019-03-15T13:23:40.253Z,57.17
2019-03-15T13:26:12.465Z,56.84
2019-03-15T13:28:44.846Z,57.12
2019-03-15T13:31:16.985Z,57.14
2019-03-15T13:33:49.405Z,57.75
2019-03-15T13:36:21.646Z,57.07
2019-03-15T13:38:54.066Z,57.35
2019-03-15T13:41:27.065Z,57.51
2019-03-15T13:43:59.108Z,57.47
2019-03-15T13:46:31.205Z,58.58
2019-03-15T13:49:03.425Z,58.15
2019-03-15T13:51:35.689Z,57.46
2019-03-15T13:54:08.036Z,57.25
2019-03-15T13:56:40.206Z,56.56
2019-03-15T13:59:12.406Z,57.38
2019-03-15T14:01:44.631Z,56.93
2019-03-15T14:04:17.045Z,56.63
2019-03-15T14:06:49.205Z,58.06
2019-03-15T14:09:21.485Z,57.70
2019-03-15T14:11:53.645Z,55.72
2019-03-15T14:14:26.028Z,56.06
2019-03-15T14:16:59.465Z,55.70
2019-03-15T14:19:32.205Z,55.84
2019-03-15T14:22:06.140Z,55.41
2019-03-15T14:24:38.346Z,55.35
2019-03-15T14:27:10.526Z,55.20
2019-03-15T14:29:42.845Z,55.36
2019-03-15T14:32:15.187Z,55.38
2019-03-15T14:34:47.805Z,55.84
2019-03-15T14:37:20.232Z,54.83
2019-03-15T14:39:52.903Z,56.04
2019-03-15T14:42:25.400Z,56.40
2019-03-15T14:44:58.141Z,55.87
2019-03-15T14:47:30.595Z,56.24
2019-03-15T14:50:03.157Z,56.60
2019-03-15T14:52:35.570Z,55.04
2019-03-15T14:55:11.434Z,56.12
2019-03-15T14:57:51.872Z,55.54
2019-03-15T15:00:22.386Z,55.48
2019-03-15T15:02:54.616Z,55.53
2019-03-15T15:05:26.833Z,55.77
2019-03-15T15:07:58.911Z,56.00
2019-03-15T15:10:31.191Z,56.02
2019-03-15T15:13:03.273Z,56.14
2019-03-15T15:15:35.330Z,56.86
2019-03-15T15:18:07.490Z,57.06
2019-03-15T15:20:39.547Z,57.83
2019-03-15T15:23:12.191Z,57.98
2019-03-15T15:25:44.818Z,58.08
2019-03-15T15:28:16.975Z,58.51
2019-03-15T15:30:49.136Z,58.60
2019-03-15T15:33:21.196Z,58.94
2019-03-15T15:35:53.416Z,59.01
2019-03-15T15:38:26.916Z,59.32
2019-03-15T15:40:59.851Z,59.69
2019-03-15T15:43:32.380Z,60.42
2019-03-15T15:46:05.055Z,60.38
2019-03-15T15:48:38.651Z,60.60
2019-03-15T15:51:10.946Z,60.96
2019-03-15T15:53:43.516Z,61.34
2019-03-15T15:56:15.845Z,61.50
2019-03-15T15:58:48.166Z,61.60
2019-03-15T16:01:20.911Z,62.06
2019-03-15T16:03:53.532Z,62.33
2019-03-15T16:06:26.023Z,62.82
2019-03-15T16:08:59.881Z,65.95
2019-03-15T16:11:32.820Z,59.19
2019-03-15T16:14:05.195Z,53.83
2019-03-15T16:16:37.492Z,50.81
2019-03-15T16:19:10.977Z,50.36
2019-03-15T16:21:43.241Z,50.86
2019-03-15T16:24:15.895Z,51.67
2019-03-15T16:26:48.710Z,52.29
2019-03-15T16:29:21.345Z,52.46
2019-03-15T16:31:53.755Z,52.74
2019-03-15T16:34:26.247Z,54.10
2019-03-15T16:36:58.844Z,55.21
2019-03-15T16:39:31.285Z,56.23
2019-03-15T16:42:03.860Z,57.17
2019-03-15T16:44:36.470Z,58.21
2019-03-15T16:47:08.905Z,58.95
2019-03-15T16:49:41.365Z,59.82
2019-03-15T16:52:13.635Z,60.59
2019-03-15T16:54:46.075Z,61.26
2019-03-15T16:57:18.765Z,61.99
2019-03-15T16:59:51.205Z,61.86
2019-03-15T17:02:23.578Z,62.74
2019-03-15T17:04:55.940Z,66.61
2019-03-15T17:07:28.196Z,59.13
2019-03-15T17:10:00.575Z,54.38
2019-03-15T17:12:33.235Z,51.06
2019-03-15T17:15:10.175Z,51.83
2019-03-15T17:17:42.715Z,52.38
2019-03-15T17:20:15.114Z,53.24
2019-03-15T17:22:47.860Z,54.48
2019-03-15T17:25:20.435Z,55.75
2019-03-15T17:27:52.785Z,57.17
2019-03-15T17:30:25.201Z,58.32
2019-03-15T17:32:57.676Z,59.20
2019-03-15T17:35:29.921Z,60.24
2019-03-15T17:38:02.441Z,61.01
2019-03-15T17:40:34.809Z,61.95
2019-03-15T17:43:07.385Z,62.92
2019-03-15T17:45:39.755Z,66.38
2019-03-15T17:48:12.205Z,60.86
2019-03-15T17:50:44.850Z,55.22
2019-03-15T17:53:17.230Z,51.54
2019-03-15T17:55:49.556Z,51.65
2019-03-15T17:58:21.995Z,52.89
2019-03-15T18:00:54.551Z,54.39
2019-03-15T18:03:27.074Z,55.95
2019-03-15T18:05:59.750Z,57.22
2019-03-15T18:08:32.249Z,58.23
2019-03-15T18:11:04.780Z,59.29
2019-03-15T18:13:37.376Z,60.63
2019-03-15T18:16:09.840Z,61.38
2019-03-15T18:18:42.545Z,62.92
2019-03-15T18:21:15.159Z,66.56
2019-03-15T18:23:47.922Z,60.36
2019-03-15T18:26:20.280Z,54.39
2019-03-15T18:28:52.609Z,51.60
2019-03-15T18:31:25.115Z,52.14
2019-03-15T18:33:57.780Z,53.36
2019-03-15T18:36:30.301Z,54.34
2019-03-15T18:39:02.895Z,55.59
2019-03-15T18:41:35.310Z,56.95
2019-03-15T18:44:07.624Z,57.98
2019-03-15T18:46:40.125Z,59.61
2019-03-15T18:49:12.602Z,59.90
2019-03-15T18:51:45.138Z,62.06
2019-03-15T18:54:18.115Z,63.17
2019-03-15T18:56:50.945Z,66.26
2019-03-15T18:59:23.729Z,60.56
2019-03-15T19:01:56.374Z,54.94
2019-03-15T19:04:28.770Z,51.67
2019-03-15T19:07:01.295Z,52.45
2019-03-15T19:09:33.867Z,53.97
2019-03-15T19:12:06.230Z,55.42
2019-03-15T19:14:38.880Z,56.59
2019-03-15T19:17:11.772Z,57.71
2019-03-15T19:19:44.795Z,59.17
2019-03-15T19:22:17.893Z,60.95
2019-03-15T19:24:50.350Z,62.40
2019-03-15T19:27:22.960Z,65.60
2019-03-15T19:29:55.495Z,60.17
2019-03-15T19:32:28.182Z,55.27
2019-03-15T19:35:00.725Z,52.27
2019-03-15T19:37:33.175Z,53.24
2019-03-15T19:40:09.476Z,54.45
2019-03-15T19:42:45.012Z,55.83
2019-03-15T19:45:18.389Z,57.00
2019-03-15T19:47:51.490Z,58.44
2019-03-15T19:50:23.980Z,59.73
2019-03-15T19:52:56.707Z,60.44
2019-03-15T19:55:29.265Z,62.15
2019-03-15T19:58:01.681Z,65.41
2019-03-15T20:00:34.316Z,59.65
2019-03-15T20:03:06.834Z,55.97
2019-03-15T20:05:39.409Z,56.30
2019-03-15T20:08:11.984Z,56.97
2019-03-15T20:10:44.505Z,58.41
2019-03-15T20:13:16.891Z,58.88
2019-03-15T20:15:50.880Z,60.81
2019-03-15T20:18:23.626Z,61.34
2019-03-15T20:20:56.035Z,62.24
2019-03-15T20:23:28.560Z,64.56
2019-03-15T20:26:02.270Z,59.69
2019-03-15T20:28:34.999Z,55.58
2019-03-15T20:31:07.883Z,55.65
2019-03-15T20:33:41.370Z,56.30
2019-03-15T20:36:13.796Z,56.61
2019-03-15T20:38:46.615Z,57.72
2019-03-15T20:41:19.764Z,58.55
2019-03-15T20:43:52.320Z,59.86
2019-03-15T20:46:35.199Z,60.93
2019-03-15T20:48:58.901Z,62.28
2019-03-15T20:51:31.706Z,66.22
2019-03-15T20:54:04.226Z,61.11
2019-03-15T20:56:36.635Z,54.69
2019-03-15T20:59:09.395Z,51.74
2019-03-15T21:01:41.750Z,52.58
2019-03-15T21:04:14.175Z,53.75
2019-03-15T21:06:47.144Z,54.92
2019-03-15T21:09:20.671Z,55.63
2019-03-15T21:11:53.094Z,55.79
2019-03-15T21:14:25.460Z,57.18
2019-03-15T21:16:57.905Z,57.83
2019-03-15T21:19:30.583Z,58.72
2019-03-15T21:22:03.026Z,59.41
2019-03-15T21:24:35.326Z,60.81
2019-03-15T21:27:07.686Z,61.42
2019-03-15T21:29:39.965Z,61.36
2019-03-15T21:32:12.767Z,62.07
2019-03-15T21:34:44.965Z,62.42
2019-03-15T21:37:17.480Z,64.47
2019-03-15T21:39:50.035Z,61.65
2019-03-15T21:42:22.430Z,55.00
2019-03-15T21:44:54.900Z,51.46
2019-03-15T21:47:27.655Z,49.64
2019-03-15T21:50:00.482Z,50.74
2019-03-15T21:52:32.915Z,51.33
2019-03-15T21:55:05.937Z,53.25
2019-03-15T21:57:38.394Z,54.21
2019-03-15T22:00:20.935Z,55.30
2019-03-15T22:02:53.339Z,55.83
2019-03-15T22:05:25.570Z,56.68
2019-03-15T22:07:58.170Z,57.85
2019-03-15T22:10:30.470Z,58.84
2019-03-15T22:13:02.977Z,59.31
2019-03-15T22:15:35.255Z,60.37
2019-03-15T22:18:07.860Z,60.90
2019-03-15T22:20:40.410Z,61.01
2019-03-15T22:23:12.877Z,61.66
2019-03-15T22:25:45.655Z,62.03
2019-03-15T22:28:18.685Z,62.37
2019-03-15T22:30:51.090Z,61.89
2019-03-15T22:33:23.837Z,54.66
2019-03-15T22:35:56.194Z,53.16
2019-03-15T22:38:28.640Z,52.68
2019-03-15T22:41:01.365Z,53.36
2019-03-15T22:43:33.745Z,55.03
2019-03-15T22:46:07.330Z,54.97
2019-03-15T22:48:39.607Z,55.91
2019-03-15T22:51:12.175Z,56.02
2019-03-15T22:53:44.635Z,55.75
2019-03-15T22:56:17.005Z,54.68
2019-03-15T22:58:49.495Z,55.47
2019-03-15T23:01:30.236Z,55.84
2019-03-15T23:03:56.086Z,56.50
2019-03-15T23:06:28.760Z,57.02
2019-03-15T23:09:00.936Z,57.43
2019-03-15T23:11:34.008Z,58.77
2019-03-15T23:14:06.485Z,59.30
2019-03-15T23:16:38.875Z,60.31
2019-03-15T23:19:11.055Z,61.00
2019-03-15T23:21:43.550Z,61.23
2019-03-15T23:24:15.871Z,61.81
2019-03-15T23:26:49.219Z,61.49
2019-03-15T23:29:21.535Z,62.24
2019-03-15T23:31:54.046Z,62.37
2019-03-15T23:34:27.490Z,65.45
2019-03-15T23:36:59.795Z,59.09
2019-03-15T23:39:32.256Z,50.84
2019-03-15T23:42:04.644Z,51.51
2019-03-15T23:44:36.835Z,52.25
2019-03-15T23:47:09.160Z,50.56
2019-03-15T23:49:41.680Z,50.84
2019-03-15T23:52:13.915Z,51.59
2019-03-15T23:54:46.145Z,52.66
2019-03-15T23:57:19.360Z,52.22
2019-03-15T23:59:51.675Z,53.02
